sensor_id;sensor_type;location;lat;lon;timestamp;P1;durP1;ratioP1;P2;durP2;ratioP2
12271;SDS011;6198;51.446;6.698;2023-06-14T00:02:22;7.53;;;5.72;;
12271;SDS011;6198;51.446;6.698;2023-06-14T00:04:48;8.60;;;6.07;;
12271;SDS011;6198;51.446;6.698;2023-06-14T00:07:16;8.63;;;5.87;;
12271;SDS011;6198;51.446;6.698;2023-06-14T00:09:43;9.65;;;6.70;;
12271;SDS011;6198;51.446;6.698;2023-06-14T00:12:09;6.93;;;5.75;;
12271;SDS011;6198;51.446;6.698;2023-06-14T00:14:35;10.02;;;6.45;;
12271;SDS011;6198;51.446;6.698;2023-06-14T00:17:01;9.47;;;5.90;;
12271;SDS011;6198;51.446;6.698;2023-06-14T00:19:27;8.30;;;6.20;;
12271;SDS011;6198;51.446;6.698;2023-06-14T00:21:54;9.43;;;6.00;;
12271;SDS011;6198;51.446;6.698;2023-06-14T00:24:20;8.23;;;6.13;;
12271;SDS011;6198;51.446;6.698;2023-06-14T00:26:46;11.73;;;6.03;;
12271;SDS011;6198;51.446;6.698;2023-06-14T00:29:12;8.17;;;5.83;;
12271;SDS011;6198;51.446;6.698;2023-06-14T00:31:38;6.83;;;5.97;;
12271;SDS011;6198;51.446;6.698;2023-06-14T00:34:04;8.80;;;5.90;;
12271;SDS011;6198;51.446;6.698;2023-06-14T00:36:30;8.63;;;6.00;;
12271;SDS011;6198;51.446;6.698;2023-06-14T00:38:56;13.07;;;6.47;;
12271;SDS011;6198;51.446;6.698;2023-06-14T00:41:22;7.97;;;5.70;;
12271;SDS011;6198;51.446;6.698;2023-06-14T00:43:48;9.07;;;6.20;;
12271;SDS011;6198;51.446;6.698;2023-06-14T00:46:14;11.83;;;6.73;;
12271;SDS011;6198;51.446;6.698;2023-06-14T00:48:40;11.53;;;6.47;;
12271;SDS011;6198;51.446;6.698;2023-06-14T00:51:06;7.47;;;5.27;;
12271;SDS011;6198;51.446;6.698;2023-06-14T00:53:32;8.87;;;6.10;;
12271;SDS011;6198;51.446;6.698;2023-06-14T00:56:00;9.07;;;6.33;;
12271;SDS011;6198;51.446;6.698;2023-06-14T00:58:26;7.60;;;6.10;;
12271;SDS011;6198;51.446;6.698;2023-06-14T01:00:53;7.93;;;6.33;;
12271;SDS011;6198;51.446;6.698;2023-06-14T01:03:19;9.97;;;5.77;;
12271;SDS011;6198;51.446;6.698;2023-06-14T01:05:46;6.10;;;5.40;;
12271;SDS011;6198;51.446;6.698;2023-06-14T01:10:53;7.00;;;5.83;;
12271;SDS011;6198;51.446;6.698;2023-06-14T01:15:50;6.70;;;5.87;;
12271;SDS011;6198;51.446;6.698;2023-06-14T01:18:17;8.43;;;5.77;;
12271;SDS011;6198;51.446;6.698;2023-06-14T01:20:47;8.80;;;5.90;;
12271;SDS011;6198;51.446;6.698;2023-06-14T01:23:17;9.23;;;4.83;;
12271;SDS011;6198;51.446;6.698;2023-06-14T01:25:43;7.03;;;5.60;;
12271;SDS011;6198;51.446;6.698;2023-06-14T01:28:10;10.60;;;5.77;;
12271;SDS011;6198;51.446;6.698;2023-06-14T01:30:38;7.77;;;5.60;;
12271;SDS011;6198;51.446;6.698;2023-06-14T01:33:07;8.77;;;5.53;;
12271;SDS011;6198;51.446;6.698;2023-06-14T01:35:34;11.07;;;5.90;;
12271;SDS011;6198;51.446;6.698;2023-06-14T01:38:00;8.70;;;5.87;;
12271;SDS011;6198;51.446;6.698;2023-06-14T01:40:27;11.13;;;5.20;;
12271;SDS011;6198;51.446;6.698;2023-06-14T01:42:53;8.77;;;5.60;;
12271;SDS011;6198;51.446;6.698;2023-06-14T01:45:19;8.87;;;5.53;;
12271;SDS011;6198;51.446;6.698;2023-06-14T01:47:46;10.20;;;5.80;;
12271;SDS011;6198;51.446;6.698;2023-06-14T01:50:12;9.33;;;5.60;;
12271;SDS011;6198;51.446;6.698;2023-06-14T01:52:38;10.67;;;5.57;;
12271;SDS011;6198;51.446;6.698;2023-06-14T01:55:05;6.57;;;5.60;;
12271;SDS011;6198;51.446;6.698;2023-06-14T01:57:32;11.13;;;5.67;;
12271;SDS011;6198;51.446;6.698;2023-06-14T01:59:58;8.93;;;5.33;;
12271;SDS011;6198;51.446;6.698;2023-06-14T02:02:24;8.17;;;5.67;;
12271;SDS011;6198;51.446;6.698;2023-06-14T02:04:50;9.00;;;5.90;;
12271;SDS011;6198;51.446;6.698;2023-06-14T02:07:17;9.40;;;6.07;;
12271;SDS011;6198;51.446;6.698;2023-06-14T02:09:43;11.17;;;5.37;;
12271;SDS011;6198;51.446;6.698;2023-06-14T02:12:09;11.37;;;5.20;;
12271;SDS011;6198;51.446;6.698;2023-06-14T02:14:35;7.87;;;5.50;;
12271;SDS011;6198;51.446;6.698;2023-06-14T02:17:03;5.87;;;5.23;;
12271;SDS011;6198;51.446;6.698;2023-06-14T02:19:29;9.40;;;5.50;;
12271;SDS011;6198;51.446;6.698;2023-06-14T02:21:56;10.40;;;5.50;;
12271;SDS011;6198;51.446;6.698;2023-06-14T02:24:22;6.63;;;4.90;;
12271;SDS011;6198;51.446;6.698;2023-06-14T02:26:48;10.23;;;6.10;;
12271;SDS011;6198;51.446;6.698;2023-06-14T02:29:15;6.33;;;5.70;;
12271;SDS011;6198;51.446;6.698;2023-06-14T02:31:41;6.77;;;5.47;;
12271;SDS011;6198;51.446;6.698;2023-06-14T02:34:07;6.63;;;5.33;;
12271;SDS011;6198;51.446;6.698;2023-06-14T02:36:34;6.63;;;5.07;;
12271;SDS011;6198;51.446;6.698;2023-06-14T02:39:00;6.37;;;4.97;;
12271;SDS011;6198;51.446;6.698;2023-06-14T02:41:26;12.20;;;6.33;;
12271;SDS011;6198;51.446;6.698;2023-06-14T02:43:52;8.43;;;5.43;;
12271;SDS011;6198;51.446;6.698;2023-06-14T02:46:18;9.17;;;5.20;;
12271;SDS011;6198;51.446;6.698;2023-06-14T02:48:44;8.73;;;5.17;;
12271;SDS011;6198;51.446;6.698;2023-06-14T02:51:10;8.77;;;5.67;;
12271;SDS011;6198;51.446;6.698;2023-06-14T02:53:37;9.87;;;5.63;;
12271;SDS011;6198;51.446;6.698;2023-06-14T02:56:03;8.33;;;5.20;;
12271;SDS011;6198;51.446;6.698;2023-06-14T02:58:30;9.83;;;5.23;;
12271;SDS011;6198;51.446;6.698;2023-06-14T03:00:56;12.63;;;5.67;;
12271;SDS011;6198;51.446;6.698;2023-06-14T03:03:22;9.67;;;5.87;;
12271;SDS011;6198;51.446;6.698;2023-06-14T03:05:50;11.97;;;5.80;;
12271;SDS011;6198;51.446;6.698;2023-06-14T03:08:17;10.27;;;5.33;;
12271;SDS011;6198;51.446;6.698;2023-06-14T03:10:47;12.80;;;6.07;;
12271;SDS011;6198;51.446;6.698;2023-06-14T03:13:13;8.87;;;5.40;;
12271;SDS011;6198;51.446;6.698;2023-06-14T03:15:40;6.03;;;5.17;;
12271;SDS011;6198;51.446;6.698;2023-06-14T03:18:09;10.90;;;5.37;;
12271;SDS011;6198;51.446;6.698;2023-06-14T03:20:36;13.73;;;5.53;;
12271;SDS011;6198;51.446;6.698;2023-06-14T03:23:03;9.53;;;5.00;;
12271;SDS011;6198;51.446;6.698;2023-06-14T03:25:30;10.38;;;5.55;;
12271;SDS011;6198;51.446;6.698;2023-06-14T03:27:56;11.83;;;5.10;;
12271;SDS011;6198;51.446;6.698;2023-06-14T03:30:22;10.27;;;4.73;;
12271;SDS011;6198;51.446;6.698;2023-06-14T03:32:48;12.00;;;4.80;;
12271;SDS011;6198;51.446;6.698;2023-06-14T03:35:16;9.80;;;4.87;;
12271;SDS011;6198;51.446;6.698;2023-06-14T03:37:46;7.20;;;4.67;;
12271;SDS011;6198;51.446;6.698;2023-06-14T03:40:16;9.63;;;5.23;;
12271;SDS011;6198;51.446;6.698;2023-06-14T03:42:42;8.13;;;4.70;;
12271;SDS011;6198;51.446;6.698;2023-06-14T03:45:08;8.83;;;4.67;;
12271;SDS011;6198;51.446;6.698;2023-06-14T03:47:34;11.30;;;5.00;;
12271;SDS011;6198;51.446;6.698;2023-06-14T03:50:01;10.03;;;5.07;;
12271;SDS011;6198;51.446;6.698;2023-06-14T03:52:27;7.77;;;5.20;;
12271;SDS011;6198;51.446;6.698;2023-06-14T03:54:53;7.73;;;4.73;;
12271;SDS011;6198;51.446;6.698;2023-06-14T03:57:19;8.13;;;4.30;;
12271;SDS011;6198;51.446;6.698;2023-06-14T03:59:46;10.20;;;5.00;;
12271;SDS011;6198;51.446;6.698;2023-06-14T04:02:12;11.57;;;4.83;;
12271;SDS011;6198;51.446;6.698;2023-06-14T04:04:42;10.03;;;5.00;;
12271;SDS011;6198;51.446;6.698;2023-06-14T04:07:10;6.20;;;4.20;;
12271;SDS011;6198;51.446;6.698;2023-06-14T04:09:36;8.33;;;4.70;;
12271;SDS011;6198;51.446;6.698;2023-06-14T04:12:03;8.00;;;4.63;;
12271;SDS011;6198;51.446;6.698;2023-06-14T04:14:29;7.73;;;4.97;;
12271;SDS011;6198;51.446;6.698;2023-06-14T04:16:55;7.03;;;4.27;;
12271;SDS011;6198;51.446;6.698;2023-06-14T04:19:21;10.83;;;4.50;;
12271;SDS011;6198;51.446;6.698;2023-06-14T04:21:47;6.93;;;4.80;;
12271;SDS011;6198;51.446;6.698;2023-06-14T04:24:13;9.33;;;4.73;;
12271;SDS011;6198;51.446;6.698;2023-06-14T04:26:42;9.57;;;5.13;;
12271;SDS011;6198;51.446;6.698;2023-06-14T04:29:09;11.83;;;4.57;;
12271;SDS011;6198;51.446;6.698;2023-06-14T04:31:39;8.80;;;4.60;;
12271;SDS011;6198;51.446;6.698;2023-06-14T04:34:05;5.03;;;3.93;;
12271;SDS011;6198;51.446;6.698;2023-06-14T04:36:32;5.87;;;3.97;;
12271;SDS011;6198;51.446;6.698;2023-06-14T04:39:06;8.30;;;4.30;;
12271;SDS011;6198;51.446;6.698;2023-06-14T04:41:32;7.87;;;4.97;;
12271;SDS011;6198;51.446;6.698;2023-06-14T04:44:00;12.50;;;4.43;;
12271;SDS011;6198;51.446;6.698;2023-06-14T04:46:28;6.47;;;3.73;;
12271;SDS011;6198;51.446;6.698;2023-06-14T04:48:55;7.53;;;4.23;;
12271;SDS011;6198;51.446;6.698;2023-06-14T04:51:21;9.80;;;4.33;;
12271;SDS011;6198;51.446;6.698;2023-06-14T04:53:54;11.13;;;4.27;;
12271;SDS011;6198;51.446;6.698;2023-06-14T04:56:21;11.23;;;4.20;;
12271;SDS011;6198;51.446;6.698;2023-06-14T04:58:48;10.10;;;4.30;;
12271;SDS011;6198;51.446;6.698;2023-06-14T05:01:14;11.23;;;4.60;;
12271;SDS011;6198;51.446;6.698;2023-06-14T05:03:40;8.17;;;4.57;;
12271;SDS011;6198;51.446;6.698;2023-06-14T05:06:06;10.07;;;4.70;;
12271;SDS011;6198;51.446;6.698;2023-06-14T05:08:32;9.80;;;4.60;;
12271;SDS011;6198;51.446;6.698;2023-06-14T05:10:58;8.27;;;4.43;;
12271;SDS011;6198;51.446;6.698;2023-06-14T05:13:24;9.17;;;4.20;;
12271;SDS011;6198;51.446;6.698;2023-06-14T05:15:52;15.20;;;4.40;;
12271;SDS011;6198;51.446;6.698;2023-06-14T05:18:18;6.23;;;3.97;;
12271;SDS011;6198;51.446;6.698;2023-06-14T05:20:44;8.20;;;4.33;;
12271;SDS011;6198;51.446;6.698;2023-06-14T05:23:11;7.80;;;4.30;;
12271;SDS011;6198;51.446;6.698;2023-06-14T05:25:39;9.57;;;4.33;;
12271;SDS011;6198;51.446;6.698;2023-06-14T05:28:06;8.33;;;4.57;;
12271;SDS011;6198;51.446;6.698;2023-06-14T05:30:32;12.57;;;4.20;;
12271;SDS011;6198;51.446;6.698;2023-06-14T05:32:58;10.13;;;4.10;;
12271;SDS011;6198;51.446;6.698;2023-06-14T05:35:24;10.57;;;4.40;;
12271;SDS011;6198;51.446;6.698;2023-06-14T05:37:51;5.20;;;4.07;;
12271;SDS011;6198;51.446;6.698;2023-06-14T05:40:18;8.13;;;4.17;;
12271;SDS011;6198;51.446;6.698;2023-06-14T05:42:45;8.07;;;4.23;;
12271;SDS011;6198;51.446;6.698;2023-06-14T05:45:11;9.90;;;4.63;;
12271;SDS011;6198;51.446;6.698;2023-06-14T05:47:37;6.23;;;3.83;;
12271;SDS011;6198;51.446;6.698;2023-06-14T05:50:03;9.13;;;4.70;;
12271;SDS011;6198;51.446;6.698;2023-06-14T05:52:29;6.60;;;4.43;;
12271;SDS011;6198;51.446;6.698;2023-06-14T05:54:56;5.80;;;3.87;;
12271;SDS011;6198;51.446;6.698;2023-06-14T05:57:22;6.87;;;3.97;;
12271;SDS011;6198;51.446;6.698;2023-06-14T05:59:48;5.73;;;2.60;;
12271;SDS011;6198;51.446;6.698;2023-06-14T06:02:15;10.40;;;4.03;;
12271;SDS011;6198;51.446;6.698;2023-06-14T06:04:41;8.83;;;4.80;;
12271;SDS011;6198;51.446;6.698;2023-06-14T06:07:07;9.60;;;4.07;;
12271;SDS011;6198;51.446;6.698;2023-06-14T06:09:33;12.30;;;4.40;;
12271;SDS011;6198;51.446;6.698;2023-06-14T06:11:59;8.23;;;3.93;;
12271;SDS011;6198;51.446;6.698;2023-06-14T06:14:25;12.93;;;4.67;;
12271;SDS011;6198;51.446;6.698;2023-06-14T06:16:51;11.70;;;4.47;;
12271;SDS011;6198;51.446;6.698;2023-06-14T06:19:17;10.37;;;4.40;;
12271;SDS011;6198;51.446;6.698;2023-06-14T06:21:43;12.13;;;4.57;;
12271;SDS011;6198;51.446;6.698;2023-06-14T06:24:09;10.67;;;4.03;;
12271;SDS011;6198;51.446;6.698;2023-06-14T06:26:35;5.80;;;3.67;;
12271;SDS011;6198;51.446;6.698;2023-06-14T06:29:02;12.10;;;4.17;;
12271;SDS011;6198;51.446;6.698;2023-06-14T06:31:27;8.27;;;4.23;;
12271;SDS011;6198;51.446;6.698;2023-06-14T06:33:54;5.80;;;3.97;;
12271;SDS011;6198;51.446;6.698;2023-06-14T06:36:20;15.77;;;3.77;;
12271;SDS011;6198;51.446;6.698;2023-06-14T06:38:46;7.63;;;4.20;;
12271;SDS011;6198;51.446;6.698;2023-06-14T06:41:12;9.53;;;3.90;;
12271;SDS011;6198;51.446;6.698;2023-06-14T06:43:38;9.03;;;3.80;;
12271;SDS011;6198;51.446;6.698;2023-06-14T06:46:04;7.37;;;4.33;;
12271;SDS011;6198;51.446;6.698;2023-06-14T06:48:30;8.30;;;3.53;;
12271;SDS011;6198;51.446;6.698;2023-06-14T06:50:56;5.97;;;3.40;;
12271;SDS011;6198;51.446;6.698;2023-06-14T06:53:22;5.77;;;3.67;;
12271;SDS011;6198;51.446;6.698;2023-06-14T06:55:48;9.33;;;3.90;;
12271;SDS011;6198;51.446;6.698;2023-06-14T06:58:14;5.77;;;3.33;;
12271;SDS011;6198;51.446;6.698;2023-06-14T07:00:40;6.93;;;2.90;;
12271;SDS011;6198;51.446;6.698;2023-06-14T07:03:06;6.57;;;3.07;;
12271;SDS011;6198;51.446;6.698;2023-06-14T07:05:33;3.90;;;2.47;;
12271;SDS011;6198;51.446;6.698;2023-06-14T07:07:58;11.07;;;3.60;;
12271;SDS011;6198;51.446;6.698;2023-06-14T07:10:25;7.57;;;3.30;;
12271;SDS011;6198;51.446;6.698;2023-06-14T07:12:50;9.13;;;3.10;;
12271;SDS011;6198;51.446;6.698;2023-06-14T07:15:16;9.47;;;2.83;;
12271;SDS011;6198;51.446;6.698;2023-06-14T07:17:42;11.13;;;3.00;;
12271;SDS011;6198;51.446;6.698;2023-06-14T07:20:09;3.23;;;2.70;;
12271;SDS011;6198;51.446;6.698;2023-06-14T07:22:42;9.77;;;3.27;;
12271;SDS011;6198;51.446;6.698;2023-06-14T07:25:11;4.43;;;2.13;;
12271;SDS011;6198;51.446;6.698;2023-06-14T07:27:41;4.10;;;2.43;;
12271;SDS011;6198;51.446;6.698;2023-06-14T07:30:07;3.17;;;2.33;;
12271;SDS011;6198;51.446;6.698;2023-06-14T07:32:33;7.13;;;2.60;;
12271;SDS011;6198;51.446;6.698;2023-06-14T07:34:59;3.33;;;2.50;;
12271;SDS011;6198;51.446;6.698;2023-06-14T07:37:25;6.57;;;2.73;;
12271;SDS011;6198;51.446;6.698;2023-06-14T07:39:51;3.70;;;2.50;;
12271;SDS011;6198;51.446;6.698;2023-06-14T07:42:17;6.13;;;2.77;;
12271;SDS011;6198;51.446;6.698;2023-06-14T07:44:43;6.33;;;2.70;;
12271;SDS011;6198;51.446;6.698;2023-06-14T07:47:10;5.30;;;2.47;;
12271;SDS011;6198;51.446;6.698;2023-06-14T07:49:35;5.63;;;2.50;;
12271;SDS011;6198;51.446;6.698;2023-06-14T07:52:02;2.60;;;2.40;;
12271;SDS011;6198;51.446;6.698;2023-06-14T07:54:29;2.73;;;2.40;;
12271;SDS011;6198;51.446;6.698;2023-06-14T07:56:57;3.80;;;2.53;;
12271;SDS011;6198;51.446;6.698;2023-06-14T07:59:25;6.47;;;2.60;;
12271;SDS011;6198;51.446;6.698;2023-06-14T08:01:51;7.43;;;3.43;;
12271;SDS011;6198;51.446;6.698;2023-06-14T08:04:17;3.00;;;2.70;;
12271;SDS011;6198;51.446;6.698;2023-06-14T08:06:43;4.90;;;2.90;;
12271;SDS011;6198;51.446;6.698;2023-06-14T08:09:10;4.10;;;2.83;;
12271;SDS011;6198;51.446;6.698;2023-06-14T08:11:36;5.37;;;2.07;;
12271;SDS011;6198;51.446;6.698;2023-06-14T08:14:02;7.47;;;2.87;;
12271;SDS011;6198;51.446;6.698;2023-06-14T08:16:28;3.70;;;2.80;;
12271;SDS011;6198;51.446;6.698;2023-06-14T08:18:55;3.73;;;2.33;;
12271;SDS011;6198;51.446;6.698;2023-06-14T08:21:21;6.23;;;3.20;;
12271;SDS011;6198;51.446;6.698;2023-06-14T08:23:47;4.20;;;2.57;;
12271;SDS011;6198;51.446;6.698;2023-06-14T08:26:13;5.88;;;3.22;;
12271;SDS011;6198;51.446;6.698;2023-06-14T08:28:39;6.07;;;3.20;;
12271;SDS011;6198;51.446;6.698;2023-06-14T08:31:05;8.18;;;3.33;;
12271;SDS011;6198;51.446;6.698;2023-06-14T08:33:31;9.13;;;3.05;;
12271;SDS011;6198;51.446;6.698;2023-06-14T08:36:00;11.25;;;3.10;;
12271;SDS011;6198;51.446;6.698;2023-06-14T08:38:26;4.70;;;2.80;;
12271;SDS011;6198;51.446;6.698;2023-06-14T08:40:52;5.95;;;2.95;;
12271;SDS011;6198;51.446;6.698;2023-06-14T08:43:18;5.47;;;2.83;;
12271;SDS011;6198;51.446;6.698;2023-06-14T08:45:45;8.07;;;3.17;;
12271;SDS011;6198;51.446;6.698;2023-06-14T08:48:12;10.85;;;3.38;;
12271;SDS011;6198;51.446;6.698;2023-06-14T08:50:42;5.80;;;2.60;;
12271;SDS011;6198;51.446;6.698;2023-06-14T08:53:09;5.13;;;2.85;;
12271;SDS011;6198;51.446;6.698;2023-06-14T08:55:38;4.40;;;2.40;;
12271;SDS011;6198;51.446;6.698;2023-06-14T08:58:04;5.97;;;2.70;;
12271;SDS011;6198;51.446;6.698;2023-06-14T09:00:30;5.25;;;2.85;;
12271;SDS011;6198;51.446;6.698;2023-06-14T09:02:57;3.50;;;2.90;;
12271;SDS011;6198;51.446;6.698;2023-06-14T09:05:24;11.52;;;2.70;;
12271;SDS011;6198;51.446;6.698;2023-06-14T09:07:50;4.18;;;2.70;;
12271;SDS011;6198;51.446;6.698;2023-06-14T09:10:16;4.03;;;2.78;;
12271;SDS011;6198;51.446;6.698;2023-06-14T09:12:42;13.27;;;2.67;;
12271;SDS011;6198;51.446;6.698;2023-06-14T09:15:09;7.22;;;3.05;;
12271;SDS011;6198;51.446;6.698;2023-06-14T09:17:35;5.65;;;3.13;;
12271;SDS011;6198;51.446;6.698;2023-06-14T09:20:02;6.07;;;2.90;;
12271;SDS011;6198;51.446;6.698;2023-06-14T09:22:31;4.70;;;2.75;;
12271;SDS011;6198;51.446;6.698;2023-06-14T09:24:58;5.00;;;2.90;;
12271;SDS011;6198;51.446;6.698;2023-06-14T09:27:27;6.90;;;3.23;;
12271;SDS011;6198;51.446;6.698;2023-06-14T09:29:54;5.07;;;2.90;;
12271;SDS011;6198;51.446;6.698;2023-06-14T09:32:20;9.52;;;3.30;;
12271;SDS011;6198;51.446;6.698;2023-06-14T09:34:46;5.70;;;3.10;;
12271;SDS011;6198;51.446;6.698;2023-06-14T09:37:12;5.50;;;2.97;;
12271;SDS011;6198;51.446;6.698;2023-06-14T09:39:51;5.70;;;2.35;;
12271;SDS011;6198;51.446;6.698;2023-06-14T09:42:17;11.40;;;2.80;;
12271;SDS011;6198;51.446;6.698;2023-06-14T09:44:45;5.50;;;2.45;;
12271;SDS011;6198;51.446;6.698;2023-06-14T09:47:13;3.30;;;2.53;;
12271;SDS011;6198;51.446;6.698;2023-06-14T09:49:40;2.92;;;2.25;;
12271;SDS011;6198;51.446;6.698;2023-06-14T09:52:06;3.03;;;2.47;;
12271;SDS011;6198;51.446;6.698;2023-06-14T09:54:32;3.23;;;2.30;;
12271;SDS011;6198;51.446;6.698;2023-06-14T09:57:02;11.25;;;2.25;;
12271;SDS011;6198;51.446;6.698;2023-06-14T09:59:28;6.07;;;2.35;;
12271;SDS011;6198;51.446;6.698;2023-06-14T10:01:57;3.85;;;2.22;;
12271;SDS011;6198;51.446;6.698;2023-06-14T10:04:24;3.38;;;2.20;;
12271;SDS011;6198;51.446;6.698;2023-06-14T10:06:50;4.40;;;2.25;;
12271;SDS011;6198;51.446;6.698;2023-06-14T10:09:18;4.65;;;2.20;;
12271;SDS011;6198;51.446;6.698;2023-06-14T10:11:44;2.20;;;2.00;;
12271;SDS011;6198;51.446;6.698;2023-06-14T10:14:12;4.22;;;1.90;;
12271;SDS011;6198;51.446;6.698;2023-06-14T10:19:27;4.47;;;2.23;;
12271;SDS011;6198;51.446;6.698;2023-06-14T10:22:01;4.30;;;1.90;;
12271;SDS011;6198;51.446;6.698;2023-06-14T10:24:38;3.42;;;1.95;;
12271;SDS011;6198;51.446;6.698;2023-06-14T10:27:06;6.32;;;2.30;;
12271;SDS011;6198;51.446;6.698;2023-06-14T10:29:35;4.60;;;1.90;;
12271;SDS011;6198;51.446;6.698;2023-06-14T10:32:21;4.43;;;2.20;;
12271;SDS011;6198;51.446;6.698;2023-06-14T10:34:56;2.25;;;1.83;;
12271;SDS011;6198;51.446;6.698;2023-06-14T10:37:23;2.53;;;1.87;;
12271;SDS011;6198;51.446;6.698;2023-06-14T10:39:51;5.77;;;1.90;;
12271;SDS011;6198;51.446;6.698;2023-06-14T10:42:20;3.73;;;2.20;;
12271;SDS011;6198;51.446;6.698;2023-06-14T10:44:51;3.20;;;1.93;;
12271;SDS011;6198;51.446;6.698;2023-06-14T10:50:11;2.53;;;1.40;;
12271;SDS011;6198;51.446;6.698;2023-06-14T10:52:40;5.53;;;1.80;;
12271;SDS011;6198;51.446;6.698;2023-06-14T10:55:07;4.40;;;2.23;;
12271;SDS011;6198;51.446;6.698;2023-06-14T10:57:36;3.30;;;2.10;;
12271;SDS011;6198;51.446;6.698;2023-06-14T11:00:04;4.20;;;1.70;;
12271;SDS011;6198;51.446;6.698;2023-06-14T11:02:45;2.47;;;1.60;;
12271;SDS011;6198;51.446;6.698;2023-06-14T11:05:14;6.07;;;2.03;;
12271;SDS011;6198;51.446;6.698;2023-06-14T11:10:10;7.10;;;1.83;;
12271;SDS011;6198;51.446;6.698;2023-06-14T11:12:41;2.63;;;1.40;;
12271;SDS011;6198;51.446;6.698;2023-06-14T11:15:07;3.67;;;1.50;;
12271;SDS011;6198;51.446;6.698;2023-06-14T11:17:33;3.93;;;1.50;;
12271;SDS011;6198;51.446;6.698;2023-06-14T11:20:12;7.90;;;1.90;;
12271;SDS011;6198;51.446;6.698;2023-06-14T11:22:42;4.83;;;1.60;;
12271;SDS011;6198;51.446;6.698;2023-06-14T11:25:08;17.03;;;1.80;;
12271;SDS011;6198;51.446;6.698;2023-06-14T11:27:35;7.90;;;1.60;;
12271;SDS011;6198;51.446;6.698;2023-06-14T11:30:01;3.70;;;1.80;;
12271;SDS011;6198;51.446;6.698;2023-06-14T11:32:27;2.53;;;1.60;;
12271;SDS011;6198;51.446;6.698;2023-06-14T11:34:53;2.80;;;1.53;;
12271;SDS011;6198;51.446;6.698;2023-06-14T11:37:19;1.60;;;1.50;;
12271;SDS011;6198;51.446;6.698;2023-06-14T11:39:45;4.37;;;2.20;;
12271;SDS011;6198;51.446;6.698;2023-06-14T11:42:15;8.50;;;2.23;;
12271;SDS011;6198;51.446;6.698;2023-06-14T11:44:41;3.60;;;2.03;;
12271;SDS011;6198;51.446;6.698;2023-06-14T11:47:07;3.67;;;1.90;;
12271;SDS011;6198;51.446;6.698;2023-06-14T11:49:36;3.73;;;2.00;;
12271;SDS011;6198;51.446;6.698;2023-06-14T11:52:02;14.00;;;2.40;;
12271;SDS011;6198;51.446;6.698;2023-06-14T11:54:28;7.83;;;1.83;;
12271;SDS011;6198;51.446;6.698;2023-06-14T11:56:54;3.40;;;1.77;;
12271;SDS011;6198;51.446;6.698;2023-06-14T11:59:20;4.77;;;1.77;;
12271;SDS011;6198;51.446;6.698;2023-06-14T12:01:47;1.90;;;1.77;;
12271;SDS011;6198;51.446;6.698;2023-06-14T12:04:13;6.00;;;1.97;;
12271;SDS011;6198;51.446;6.698;2023-06-14T12:06:39;4.23;;;2.00;;
12271;SDS011;6198;51.446;6.698;2023-06-14T12:09:05;1.77;;;1.67;;
12271;SDS011;6198;51.446;6.698;2023-06-14T12:11:35;5.17;;;1.77;;
12271;SDS011;6198;51.446;6.698;2023-06-14T12:14:05;1.97;;;1.87;;
12271;SDS011;6198;51.446;6.698;2023-06-14T12:16:31;4.83;;;1.63;;
12271;SDS011;6198;51.446;6.698;2023-06-14T12:19:00;2.30;;;1.70;;
12271;SDS011;6198;51.446;6.698;2023-06-14T12:21:27;2.90;;;1.97;;
12271;SDS011;6198;51.446;6.698;2023-06-14T12:23:54;7.13;;;1.83;;
12271;SDS011;6198;51.446;6.698;2023-06-14T12:26:20;2.37;;;1.93;;
12271;SDS011;6198;51.446;6.698;2023-06-14T12:28:46;3.53;;;2.10;;
12271;SDS011;6198;51.446;6.698;2023-06-14T12:31:13;3.80;;;1.90;;
12271;SDS011;6198;51.446;6.698;2023-06-14T12:33:39;11.73;;;2.17;;
12271;SDS011;6198;51.446;6.698;2023-06-14T12:36:09;7.13;;;2.10;;
12271;SDS011;6198;51.446;6.698;2023-06-14T12:38:36;3.63;;;1.90;;
12271;SDS011;6198;51.446;6.698;2023-06-14T12:41:02;5.87;;;1.80;;
12271;SDS011;6198;51.446;6.698;2023-06-14T12:43:28;4.10;;;1.83;;
12271;SDS011;6198;51.446;6.698;2023-06-14T12:45:54;4.97;;;2.30;;
12271;SDS011;6198;51.446;6.698;2023-06-14T12:48:20;5.03;;;2.20;;
12271;SDS011;6198;51.446;6.698;2023-06-14T12:50:47;6.53;;;2.70;;
12271;SDS011;6198;51.446;6.698;2023-06-14T12:53:13;4.83;;;2.20;;
12271;SDS011;6198;51.446;6.698;2023-06-14T12:55:39;6.30;;;2.47;;
12271;SDS011;6198;51.446;6.698;2023-06-14T12:58:05;8.32;;;2.60;;
12271;SDS011;6198;51.446;6.698;2023-06-14T13:00:31;8.00;;;2.40;;
12271;SDS011;6198;51.446;6.698;2023-06-14T13:02:57;3.97;;;2.30;;
12271;SDS011;6198;51.446;6.698;2023-06-14T13:05:24;5.47;;;2.50;;
12271;SDS011;6198;51.446;6.698;2023-06-14T13:07:50;3.75;;;2.60;;
12271;SDS011;6198;51.446;6.698;2023-06-14T13:10:16;7.47;;;2.78;;
12271;SDS011;6198;51.446;6.698;2023-06-14T13:12:43;6.47;;;2.78;;
12271;SDS011;6198;51.446;6.698;2023-06-14T13:15:09;3.38;;;2.60;;
12271;SDS011;6198;51.446;6.698;2023-06-14T13:17:35;2.95;;;2.40;;
12271;SDS011;6198;51.446;6.698;2023-06-14T13:20:05;5.47;;;2.80;;
12271;SDS011;6198;51.446;6.698;2023-06-14T13:22:32;6.45;;;2.50;;
12271;SDS011;6198;51.446;6.698;2023-06-14T13:24:58;7.67;;;2.97;;
12271;SDS011;6198;51.446;6.698;2023-06-14T13:27:25;5.55;;;2.60;;
12271;SDS011;6198;51.446;6.698;2023-06-14T13:29:51;7.23;;;2.83;;
12271;SDS011;6198;51.446;6.698;2023-06-14T13:32:17;2.93;;;2.73;;
12271;SDS011;6198;51.446;6.698;2023-06-14T13:34:43;7.17;;;3.03;;
12271;SDS011;6198;51.446;6.698;2023-06-14T13:37:09;9.83;;;3.07;;
12271;SDS011;6198;51.446;6.698;2023-06-14T13:39:35;3.03;;;2.67;;
12271;SDS011;6198;51.446;6.698;2023-06-14T13:42:02;5.27;;;2.67;;
12271;SDS011;6198;51.446;6.698;2023-06-14T13:44:28;24.07;;;2.87;;
12271;SDS011;6198;51.446;6.698;2023-06-14T13:46:54;3.10;;;2.80;;
12271;SDS011;6198;51.446;6.698;2023-06-14T13:49:20;4.87;;;2.97;;
12271;SDS011;6198;51.446;6.698;2023-06-14T13:51:46;3.40;;;2.60;;
12271;SDS011;6198;51.446;6.698;2023-06-14T13:54:12;6.07;;;2.60;;
12271;SDS011;6198;51.446;6.698;2023-06-14T13:56:41;3.50;;;2.43;;
12271;SDS011;6198;51.446;6.698;2023-06-14T13:59:07;4.30;;;2.40;;
12271;SDS011;6198;51.446;6.698;2023-06-14T14:01:34;4.10;;;2.87;;
12271;SDS011;6198;51.446;6.698;2023-06-14T14:04:00;3.60;;;2.90;;
12271;SDS011;6198;51.446;6.698;2023-06-14T14:06:27;4.43;;;2.57;;
12271;SDS011;6198;51.446;6.698;2023-06-14T14:08:53;7.80;;;3.40;;
12271;SDS011;6198;51.446;6.698;2023-06-14T14:11:19;5.10;;;2.70;;
12271;SDS011;6198;51.446;6.698;2023-06-14T14:13:45;4.67;;;2.53;;
12271;SDS011;6198;51.446;6.698;2023-06-14T14:16:12;5.87;;;2.43;;
12271;SDS011;6198;51.446;6.698;2023-06-14T14:18:38;6.37;;;2.80;;
12271;SDS011;6198;51.446;6.698;2023-06-14T14:21:04;2.93;;;2.33;;
12271;SDS011;6198;51.446;6.698;2023-06-14T14:23:30;3.00;;;2.57;;
12271;SDS011;6198;51.446;6.698;2023-06-14T14:25:56;2.57;;;2.37;;
12271;SDS011;6198;51.446;6.698;2023-06-14T14:28:22;3.40;;;2.63;;
12271;SDS011;6198;51.446;6.698;2023-06-14T14:30:48;7.27;;;2.80;;
12271;SDS011;6198;51.446;6.698;2023-06-14T14:33:15;3.70;;;2.90;;
12271;SDS011;6198;51.446;6.698;2023-06-14T14:35:45;4.07;;;2.60;;
12271;SDS011;6198;51.446;6.698;2023-06-14T14:38:11;3.20;;;2.70;;
12271;SDS011;6198;51.446;6.698;2023-06-14T14:40:38;6.47;;;3.63;;
12271;SDS011;6198;51.446;6.698;2023-06-14T14:43:05;7.27;;;2.90;;
12271;SDS011;6198;51.446;6.698;2023-06-14T14:45:31;6.43;;;2.80;;
12271;SDS011;6198;51.446;6.698;2023-06-14T14:47:57;4.53;;;2.80;;
12271;SDS011;6198;51.446;6.698;2023-06-14T14:50:23;4.50;;;2.63;;
12271;SDS011;6198;51.446;6.698;2023-06-14T14:52:49;4.87;;;2.97;;
12271;SDS011;6198;51.446;6.698;2023-06-14T14:55:15;13.33;;;3.60;;
12271;SDS011;6198;51.446;6.698;2023-06-14T14:57:40;5.43;;;2.77;;
12271;SDS011;6198;51.446;6.698;2023-06-14T15:00:07;5.23;;;2.93;;
12271;SDS011;6198;51.446;6.698;2023-06-14T15:02:34;5.27;;;2.90;;
12271;SDS011;6198;51.446;6.698;2023-06-14T15:05:00;6.33;;;5.33;;
12271;SDS011;6198;51.446;6.698;2023-06-14T15:07:27;9.03;;;3.07;;
12271;SDS011;6198;51.446;6.698;2023-06-14T15:09:54;9.53;;;3.20;;